Time;durP1;ratioP1;P1;durP2;ratioP2;P2;SDS_P1;SDS_P2;PMS_P1;PMS_P2;Temp;Humidity;BMP_temperature;BMP_pressure;BME280_temperature;BME280_humidity;BME280_pressure;Samples;Min_cycle;Max_cycle;Signal;HPM_P1;HPM_P2
2023/01/22 00:00:29;;;;;;;7.78;3.92;;;9.30;65.40;;;;;;5038182;28;20029;-83
2023/01/22 00:02:55;;;;;;;8.48;4.10;;;9.30;65.40;;;;;;5047074;28;20105;-82
2023/01/22 00:05:21;;;;;;;7.97;4.28;;;9.40;65.50;;;;;;5047946;28;20035;-84
2023/01/22 00:07:47;;;;;;;8.57;3.90;;;9.30;65.40;;;;;;5038486;28;20043;-88
2023/01/22 00:10:13;;;;;;;7.53;3.83;;;9.40;65.50;;;;;;5026704;28;20506;-87
2023/01/22 00:12:39;;;;;;;8.18;4.10;;;9.40;65.60;;;;;;5027017;28;20658;-81
2023/01/22 00:15:05;;;;;;;7.03;3.85;;;9.40;65.70;;;;;;5037815;28;20064;-84
2023/01/22 00:17:31;;;;;;;6.87;3.97;;;9.40;65.70;;;;;;5037078;28;20064;-83
2023/01/22 00:19:57;;;;;;;9.35;4.40;;;9.40;65.50;;;;;;5037775;28;20060;-82
2023/01/22 00:22:23;;;;;;;7.50;4.10;;;9.40;65.60;;;;;;5021932;28;20069;-83
2023/01/22 00:24:49;;;;;;;6.60;4.10;;;9.40;65.50;;;;;;5037724;28;20025;-80
2023/01/22 00:27:15;;;;;;;5.90;3.28;;;9.40;65.60;;;;;;5036215;28;20045;-82
2023/01/22 00:29:41;;;;;;;9.82;4.80;;;9.40;65.70;;;;;;5037525;28;20069;-86
2023/01/22 00:32:07;;;;;;;4.78;3.58;;;9.40;65.60;;;;;;5020367;28;20539;-85
2023/01/22 00:34:33;;;;;;;5.90;3.63;;;9.40;65.60;;;;;;5036371;28;20566;-86
2023/01/22 00:36:59;;;;;;;8.50;4.32;;;9.40;65.90;;;;;;5010560;28;20837;-82
2023/01/22 00:39:24;;;;;;;6.97;4.40;;;9.40;65.80;;;;;;5036807;28;20372;-85
2023/01/22 00:41:51;;;;;;;8.65;4.18;;;9.40;65.30;;;;;;5038118;28;20029;-84
2023/01/22 00:44:17;;;;;;;6.13;3.92;;;9.40;64.90;;;;;;5023173;28;20033;-85
2023/01/22 00:46:43;;;;;;;7.65;4.43;;;9.40;64.50;;;;;;5023106;28;20038;-82
2023/01/22 00:49:09;;;;;;;7.93;4.00;;;9.40;64.90;;;;;;5037674;28;20385;-84
2023/01/22 00:51:35;;;;;;;8.38;4.63;;;9.30;64.10;;;;;;5023907;28;20037;-86
2023/01/22 00:54:02;;;;;;;7.80;4.68;;;9.30;64.10;;;;;;5037585;28;20033;-84
2023/01/22 00:56:27;;;;;;;9.60;4.78;;;9.30;64.10;;;;;;5020487;28;20066;-86
2023/01/22 00:58:53;;;;;;;8.27;4.40;;;9.30;64.00;;;;;;5010240;28;20044;-85
2023/01/22 01:01:19;;;;;;;8.98;4.80;;;9.30;64.00;;;;;;5010371;28;20055;-81
2023/01/22 01:03:45;;;;;;;7.40;4.43;;;9.30;64.00;;;;;;5022194;28;20508;-85
2023/01/22 01:06:20;;;;;;;8.10;4.85;;;9.30;64.00;;;;;;5038388;28;20045;-84
2023/01/22 01:08:47;;;;;;;9.05;3.85;;;9.30;63.90;;;;;;5027651;28;20033;-85
2023/01/22 01:11:16;;;;;;;9.25;4.70;;;9.20;63.70;;;;;;5023562;28;20029;-85
2023/01/22 01:13:43;;;;;;;7.93;4.70;;;9.20;63.60;;;;;;5026249;28;20154;-82
2023/01/22 01:16:19;;;;;;;7.80;4.47;;;9.20;63.60;;;;;;5028546;28;20094;-84
2023/01/22 01:18:45;;;;;;;8.65;4.28;;;9.20;63.60;;;;;;5023028;28;20036;-84
2023/01/22 01:21:11;;;;;;;8.27;4.38;;;9.20;63.70;;;;;;5023449;28;20041;-85
2023/01/22 01:23:38;;;;;;;9.75;4.60;;;9.20;63.70;;;;;;5036840;28;20120;-80
2023/01/22 01:26:10;;;;;;;7.72;4.70;;;9.10;63.60;;;;;;5025646;28;20029;-82
2023/01/22 01:28:38;;;;;;;9.80;4.90;;;9.20;63.70;;;;;;5019946;28;20056;-86
2023/01/22 01:31:07;;;;;;;8.40;5.05;;;9.20;63.20;;;;;;5005549;28;20059;-86
2023/01/22 01:33:33;;;;;;;9.60;5.53;;;9.20;63.80;;;;;;5022381;28;20527;-80
2023/01/22 01:36:09;;;;;;;9.13;4.75;;;9.10;63.80;;;;;;5041762;28;20044;-79
2023/01/22 01:38:35;;;;;;;;;;;9.10;63.80;;;;;;5038679;28;20038;-84
2023/01/22 01:41:01;;;;;;;8.52;5.00;;;9.10;63.70;;;;;;5037040;28;19917;-82
2023/01/22 01:43:27;;;;;;;10.43;4.88;;;9.10;63.80;;;;;;5015516;28;20560;-83
2023/01/22 01:45:58;;;;;;;9.63;4.68;;;9.10;63.90;;;;;;5036514;28;20470;-82
2023/01/22 01:48:33;;;;;;;9.43;4.43;;;9.10;63.80;;;;;;5018118;28;20045;-81
2023/01/22 01:51:34;;;;;;;8.93;5.50;;;9.10;63.90;;;;;;5036283;28;20061;-79
2023/01/22 01:54:01;;;;;;;7.45;4.60;;;9.10;64.00;;;;;;5002273;28;20477;-81
2023/01/22 01:56:32;;;;;;;10.18;4.68;;;9.10;64.10;;;;;;4986347;28;20034;-82
2023/01/22 01:59:02;;;;;;;9.43;5.05;;;9.10;64.00;;;;;;4985302;28;20038;-84
2023/01/22 02:01:29;;;;;;;6.75;4.38;;;9.10;64.00;;;;;;5002073;28;20030;-83
2023/01/22 02:03:56;;;;;;;7.72;4.20;;;9.00;63.90;;;;;;4986811;28;20062;-82
2023/01/22 02:06:22;;;;;;;10.35;5.03;;;9.00;63.80;;;;;;5001689;28;20045;-79
2023/01/22 02:08:50;;;;;;;9.02;4.82;;;9.00;63.90;;;;;;4985650;28;20026;-83
2023/01/22 02:11:20;;;;;;;9.40;4.75;;;9.00;63.90;;;;;;4969626;28;20038;-85
2023/01/22 02:14:05;;;;;;;9.15;5.43;;;9.00;63.90;;;;;;4986242;28;20038;-83
2023/01/22 02:16:31;;;;;;;7.75;4.53;;;9.00;63.90;;;;;;4986076;28;20044;-82
2023/01/22 02:18:57;;;;;;;9.30;5.05;;;9.00;63.90;;;;;;4992837;28;20040;-85
2023/01/22 02:21:31;;;;;;;9.80;4.95;;;9.00;64.10;;;;;;5005450;28;20038;-83
2023/01/22 02:23:59;;;;;;;9.97;5.50;;;9.00;64.10;;;;;;4993649;28;20459;-80
2023/01/22 02:26:26;;;;;;;9.90;5.22;;;9.00;64.10;;;;;;4973266;28;20289;-83
2023/01/22 02:28:53;;;;;;;9.45;4.93;;;9.00;64.00;;;;;;5012526;28;20047;-84
2023/01/22 02:31:19;;;;;;;10.30;5.30;;;9.00;64.00;;;;;;5039796;28;20520;-82
2023/01/22 02:33:46;;;;;;;9.25;5.22;;;9.00;64.00;;;;;;5028931;28;20139;-84
2023/01/22 02:36:15;;;;;;;10.23;4.88;;;9.00;64.00;;;;;;5028582;28;20041;-87
2023/01/22 02:38:41;;;;;;;10.50;5.60;;;9.00;64.00;;;;;;5013912;28;20033;-81
2023/01/22 02:41:08;;;;;;;9.43;5.20;;;9.00;64.00;;;;;;5002923;28;20135;-85
2023/01/22 02:43:34;;;;;;;12.15;5.93;;;9.00;64.00;;;;;;5026151;28;20029;-85
2023/01/22 02:46:00;;;;;;;9.68;5.30;;;9.00;64.10;;;;;;5025337;28;20129;-85
2023/01/22 02:48:28;;;;;;;10.88;5.53;;;9.00;64.10;;;;;;5008989;28;20040;-89
2023/01/22 02:50:53;;;;;;;11.27;5.80;;;9.00;64.10;;;;;;5030160;28;20036;-88
2023/01/22 02:53:20;;;;;;;7.15;4.90;;;9.00;64.10;;;;;;5029720;28;20596;-81
2023/01/22 02:55:48;;;;;;;10.98;5.53;;;9.00;64.10;;;;;;5028240;28;20159;-86
2023/01/22 02:58:16;;;;;;;9.93;5.28;;;9.00;64.00;;;;;;5011790;28;20041;-86
2023/01/22 03:00:42;;;;;;;7.47;4.55;;;9.00;64.10;;;;;;5028441;28;20140;-87
2023/01/22 03:03:14;;;;;;;8.68;5.18;;;9.00;64.10;;;;;;5028349;28;20037;-88
2023/01/22 03:05:49;;;;;;;8.23;5.03;;;8.90;64.10;;;;;;5038232;28;20037;-86
2023/01/22 03:08:16;;;;;;;9.40;5.38;;;8.90;64.10;;;;;;5039821;28;20592;-83
2023/01/22 03:10:42;;;;;;;9.50;5.85;;;8.90;64.00;;;;;;5025861;28;20091;-88
2023/01/22 03:21:24;;;;;;;10.45;5.30;;;9.00;64.00;;;;;;5043383;28;20044;-84
2023/01/22 03:23:53;;;;;;;10.05;5.15;;;8.90;63.90;;;;;;5024153;28;20032;-80
2023/01/22 03:26:20;;;;;;;10.02;5.35;;;8.90;64.00;;;;;;5038790;28;20037;-82
2023/01/22 03:28:47;;;;;;;8.55;5.05;;;8.90;64.00;;;;;;5010103;28;20231;-82
2023/01/22 03:31:15;;;;;;;8.57;5.15;;;8.90;64.10;;;;;;5027042;28;20040;-82
2023/01/22 03:33:42;;;;;;;9.88;5.45;;;8.90;64.20;;;;;;5027111;28;20036;-83
2023/01/22 03:36:11;;;;;;;9.35;5.40;;;8.90;64.20;;;;;;5024166;28;20041;-79
2023/01/22 03:38:41;;;;;;;10.98;5.60;;;8.90;64.20;;;;;;5024076;28;20396;-83
2023/01/22 03:41:15;;;;;;;9.57;5.43;;;8.90;64.20;;;;;;5026691;28;20472;-84
2023/01/22 03:43:43;;;;;;;11.38;5.63;;;8.90;64.20;;;;;;5027004;28;20392;-85
2023/01/22 03:46:16;;;;;;;12.00;5.35;;;8.90;64.10;;;;;;5027203;28;20381;-83
2023/01/22 03:48:48;;;;;;;11.85;6.20;;;8.90;64.10;;;;;;5038721;28;20044;-83
2023/01/22 03:51:15;;;;;;;9.98;5.38;;;8.90;64.10;;;;;;5037282;28;20048;-79
2023/01/22 03:53:43;;;;;;;9.98;6.05;;;8.90;64.10;;;;;;5021868;28;20033;-83
2023/01/22 03:56:15;;;;;;;11.20;5.95;;;8.90;64.10;;;;;;5009874;28;20052;-85
2023/01/22 03:58:42;;;;;;;11.57;6.65;;;8.90;64.00;;;;;;5027312;28;20048;-82
2023/01/22 04:01:15;;;;;;;7.82;5.05;;;8.90;64.00;;;;;;5024470;28;20064;-84
2023/01/22 04:03:41;;;;;;;11.40;6.15;;;8.90;64.10;;;;;;5023536;28;20056;-82
2023/01/22 04:06:09;;;;;;;10.68;6.32;;;8.90;63.90;;;;;;5022768;28;20389;-80
2023/01/22 04:08:37;;;;;;;9.70;5.90;;;8.90;64.00;;;;;;5021545;28;20528;-80
2023/01/22 04:11:04;;;;;;;10.80;6.15;;;8.90;64.10;;;;;;5025172;28;20455;-80
2023/01/22 04:13:32;;;;;;;9.13;5.93;;;8.90;64.10;;;;;;5025088;28;20467;-81
2023/01/22 04:16:00;;;;;;;10.63;6.22;;;8.90;64.10;;;;;;5010346;28;20037;-80
2023/01/22 04:18:44;;;;;;;11.43;6.05;;;8.90;64.20;;;;;;5036742;28;20039;-81
2023/01/22 04:21:23;;;;;;;11.70;5.72;;;8.90;64.20;;;;;;5022891;28;20086;-80
2023/01/22 04:23:55;;;;;;;10.70;6.13;;;8.90;64.80;;;;;;5010102;28;20033;-79
2023/01/22 04:26:21;;;;;;;11.88;6.03;;;8.90;64.20;;;;;;5027307;28;20541;-78
2023/01/22 04:28:48;;;;;;;12.35;5.85;;;8.90;64.20;;;;;;5023525;28;20041;-77
2023/01/22 04:31:14;;;;;;;10.98;6.85;;;8.90;64.20;;;;;;5010049;28;20032;-78
2023/01/22 04:33:48;;;;;;;9.75;5.50;;;8.80;64.10;;;;;;5023636;28;20555;-77
2023/01/22 04:36:19;;;;;;;11.93;6.35;;;8.80;64.10;;;;;;5009209;28;20136;-76
2023/01/22 04:38:45;;;;;;;11.70;6.07;;;8.80;64.10;;;;;;5023053;28;20118;-79
2023/01/22 04:41:11;;;;;;;12.35;5.93;;;8.90;64.20;;;;;;5026380;28;20030;-79
2023/01/22 04:43:37;;;;;;;11.73;6.20;;;8.80;64.10;;;;;;5037850;28;20040;-78
2023/01/22 04:46:03;;;;;;;11.27;6.45;;;8.80;64.10;;;;;;5025719;28;20108;-79
2023/01/22 04:48:31;;;;;;;11.38;5.78;;;8.80;64.10;;;;;;5023866;28;20199;-80
2023/01/22 04:50:58;;;;;;;12.48;6.30;;;8.80;64.80;;;;;;5036557;28;20032;-79
2023/01/22 04:53:27;;;;;;;11.07;6.15;;;8.80;64.20;;;;;;5026445;28;20033;-81
2023/01/22 04:55:54;;;;;;;13.35;7.15;;;8.80;64.20;;;;;;5034220;28;20551;-81
2023/01/22 04:58:21;;;;;;;11.63;6.18;;;8.80;64.20;;;;;;5003264;28;20174;-82
2023/01/22 05:00:47;;;;;;;10.82;6.47;;;8.80;64.30;;;;;;5024570;28;20128;-81
2023/01/22 05:03:14;;;;;;;13.80;6.70;;;8.80;64.30;;;;;;5019025;28;20049;-81
2023/01/22 05:05:41;;;;;;;12.52;5.88;;;8.80;64.30;;;;;;5021219;28;20029;-81
2023/01/22 05:08:07;;;;;;;11.52;6.47;;;8.80;64.30;;;;;;5022271;28;20064;-79
2023/01/22 05:10:35;;;;;;;11.90;5.90;;;8.90;64.40;;;;;;5025039;28;20538;-78
2023/01/22 05:13:05;;;;;;;13.00;6.15;;;8.80;65.00;;;;;;5026340;28;20137;-80
2023/01/22 05:15:33;;;;;;;10.02;5.60;;;8.90;64.50;;;;;;5025836;28;20048;-78
2023/01/22 05:18:05;;;;;;;9.93;6.45;;;8.80;64.40;;;;;;5022441;28;20048;-80
2023/01/22 05:20:34;;;;;;;11.80;6.03;;;8.80;64.50;;;;;;5025723;28;20120;-84
2023/01/22 05:23:01;;;;;;;12.18;6.38;;;8.80;64.60;;;;;;5022046;28;20029;-84
2023/01/22 05:25:28;;;;;;;12.70;6.03;;;8.80;64.70;;;;;;5023738;28;20029;-85
2023/01/22 05:27:55;;;;;;;10.60;6.05;;;8.80;64.70;;;;;;5011057;28;20449;-80
2023/01/22 05:30:41;;;;;;;;;;;8.80;64.60;;;;;;5000241;28;20026;-83
2023/01/22 05:33:33;;;;;;;14.88;7.13;;;8.80;64.60;;;;;;4964413;28;19929;-77
2023/01/22 05:36:01;;;;;;;11.70;6.43;;;8.80;64.50;;;;;;4946711;28;20125;-78
2023/01/22 05:38:29;;;;;;;12.65;6.18;;;8.80;64.60;;;;;;4946735;28;20544;-85
2023/01/22 05:40:55;;;;;;;14.32;6.60;;;8.80;64.70;;;;;;4962979;28;20065;-79
2023/01/22 05:43:22;;;;;;;15.48;6.07;;;8.80;64.80;;;;;;4946996;28;20085;-80
2023/01/22 05:45:58;;;;;;;12.52;6.13;;;8.80;64.70;;;;;;4963527;28;20066;-81
2023/01/22 05:48:43;;;;;;;16.65;6.88;;;8.80;64.80;;;;;;4964312;28;20041;-83
2023/01/22 05:51:12;;;;;;;11.55;6.63;;;8.80;64.90;;;;;;4955328;28;20461;-84
2023/01/22 05:53:38;;;;;;;13.90;7.07;;;8.80;64.80;;;;;;4932601;28;20094;-79
2023/01/22 05:56:05;;;;;;;11.50;6.85;;;8.80;64.00;;;;;;4938928;28;20047;-81
2023/01/22 05:58:36;;;;;;;12.25;7.03;;;8.80;63.20;;;;;;4968380;28;20145;-81
2023/01/22 06:01:02;;;;;;;14.18;7.32;;;8.70;62.50;;;;;;4969161;28;20059;-80
2023/01/22 06:03:34;;;;;;;14.18;7.22;;;8.70;61.80;;;;;;4935623;28;20030;-78
2023/01/22 06:06:05;;;;;;;13.50;7.18;;;8.60;61.20;;;;;;4934062;28;20416;-80
2023/01/22 06:08:32;;;;;;;15.07;7.70;;;8.60;61.00;;;;;;4946574;28;20031;-81
2023/01/22 06:11:00;;;;;;;14.23;7.65;;;8.60;60.70;;;;;;4989072;28;21213;-93
2023/01/22 06:13:28;;;;;;;15.45;7.72;;;8.50;60.30;;;;;;5005165;28;20128;-87
2023/01/22 06:15:59;;;;;;;16.00;8.02;;;8.50;60.10;;;;;;4987194;28;20030;-84
2023/01/22 06:18:45;;;;;;;14.50;7.40;;;8.50;60.00;;;;;;5003076;28;20469;-93
2023/01/22 06:21:13;;;;;;;15.75;7.85;;;8.50;59.80;;;;;;5009276;28;20030;-94
2023/01/22 06:23:39;;;;;;;13.18;7.63;;;8.40;59.50;;;;;;4992167;28;20049;-92
2023/01/22 06:26:06;;;;;;;14.20;7.35;;;8.40;59.40;;;;;;4998915;28;20120;-95
2023/01/22 06:28:32;;;;;;;13.75;8.20;;;8.30;59.20;;;;;;5003589;28;20040;-87
2023/01/22 06:31:04;;;;;;;17.25;8.55;;;8.30;59.20;;;;;;5010913;28;20038;-94
2023/01/22 06:33:32;;;;;;;13.50;7.47;;;8.30;59.10;;;;;;4994690;28;20113;-90
2023/01/22 06:35:58;;;;;;;14.98;7.90;;;8.30;59.00;;;;;;4993911;28;20088;-89
2023/01/22 06:38:24;;;;;;;18.58;8.15;;;8.20;58.90;;;;;;5003956;28;20076;-91
2023/01/22 06:40:55;;;;;;;15.70;8.27;;;8.20;58.90;;;;;;5009168;28;20057;-86
2023/01/22 06:43:23;;;;;;;18.15;9.00;;;8.20;58.80;;;;;;4991177;28;20032;-82
2023/01/22 06:45:51;;;;;;;15.55;8.82;;;8.20;58.90;;;;;;5005967;28;20029;-90
2023/01/22 06:48:20;;;;;;;15.48;7.55;;;8.10;58.90;;;;;;5006702;28;20125;-81
2023/01/22 06:50:46;;;;;;;16.63;8.23;;;8.10;58.90;;;;;;4998427;28;20034;-79
2023/01/22 06:53:13;;;;;;;20.25;8.63;;;8.10;58.90;;;;;;4999047;28;20034;-85
2023/01/22 06:55:39;;;;;;;16.40;8.75;;;8.10;58.90;;;;;;5000585;28;20026;-84
2023/01/22 06:58:05;;;;;;;17.05;8.55;;;8.10;58.90;;;;;;4984693;28;20406;-85
2023/01/22 07:00:31;;;;;;;17.80;8.38;;;8.00;58.90;;;;;;5012633;28;20038;-83
2023/01/22 07:02:57;;;;;;;18.27;9.35;;;8.00;58.90;;;;;;5003020;28;20120;-86
2023/01/22 07:05:23;;;;;;;13.70;8.20;;;8.00;59.00;;;;;;5005039;28;20036;-82
2023/01/22 07:07:53;;;;;;;17.35;8.75;;;8.00;59.00;;;;;;5011963;28;20683;-85
2023/01/22 07:10:19;;;;;;;18.25;9.00;;;8.00;59.20;;;;;;5000819;28;20026;-88
2023/01/22 07:12:46;;;;;;;18.92;8.52;;;8.00;59.20;;;;;;5004701;28;20030;-88
2023/01/22 07:15:12;;;;;;;14.38;7.75;;;8.00;59.40;;;;;;5002788;28;20125;-88
2023/01/22 07:17:38;;;;;;;16.40;8.75;;;8.00;59.40;;;;;;5000440;28;20113;-87
2023/01/22 07:20:04;;;;;;;18.73;8.50;;;8.00;59.50;;;;;;5000562;28;20475;-82
2023/01/22 07:22:33;;;;;;;13.65;8.60;;;7.90;59.40;;;;;;4999663;28;20029;-86
2023/01/22 07:24:59;;;;;;;17.83;8.80;;;8.00;59.50;;;;;;5003872;28;20034;-85
2023/01/22 07:27:25;;;;;;;21.52;8.88;;;8.00;59.60;;;;;;5004777;28;20124;-85
2023/01/22 07:29:51;;;;;;;18.48;9.88;;;8.00;59.70;;;;;;4999764;28;20045;-84
2023/01/22 07:32:17;;;;;;;16.40;8.73;;;8.00;59.70;;;;;;4998033;28;20048;-90
2023/01/22 07:34:43;;;;;;;19.55;8.65;;;7.90;59.80;;;;;;5000596;28;20034;-86
2023/01/22 07:37:09;;;;;;;17.85;8.57;;;8.00;60.00;;;;;;5001172;28;20034;-84
2023/01/22 07:39:35;;;;;;;16.20;8.60;;;7.90;60.00;;;;;;5005010;28;20536;-86
2023/01/22 07:42:01;;;;;;;14.52;8.30;;;8.00;60.10;;;;;;5001203;28;20037;-89
2023/01/22 07:44:30;;;;;;;17.77;9.18;;;8.00;60.20;;;;;;5010829;28;20125;-86
2023/01/22 07:46:56;;;;;;;16.67;9.05;;;8.00;61.00;;;;;;5012994;28;20038;-80
2023/01/22 07:49:22;;;;;;;16.75;8.32;;;8.00;62.20;;;;;;5009650;28;20530;-82
2023/01/22 07:51:47;;;;;;;14.18;8.30;;;8.00;63.00;;;;;;4995713;28;20042;-88
2023/01/22 07:54:13;;;;;;;15.13;8.85;;;8.00;63.60;;;;;;5003271;28;20047;-82
2023/01/22 07:56:39;;;;;;;18.02;9.02;;;8.00;64.10;;;;;;4999240;28;20494;-93
2023/01/22 07:59:05;;;;;;;20.10;9.75;;;8.10;64.50;;;;;;5003537;28;20052;-92
2023/01/22 08:01:31;;;;;;;17.00;9.23;;;8.10;64.70;;;;;;4971198;28;20058;-87
2023/01/22 08:03:57;;;;;;;17.88;9.50;;;8.10;64.80;;;;;;5009785;28;20034;-87
2023/01/22 08:06:23;;;;;;;18.90;9.15;;;8.20;65.00;;;;;;5005345;28;20405;-88
2023/01/22 08:08:49;;;;;;;17.30;9.40;;;8.20;65.20;;;;;;5001926;28;20038;-85
2023/01/22 08:11:15;;;;;;;17.05;8.55;;;8.20;65.20;;;;;;4992998;28;20034;-86
2023/01/22 08:13:41;;;;;;;20.85;9.23;;;8.30;65.20;;;;;;4993328;28;20051;-93
2023/01/22 08:16:08;;;;;;;20.15;9.80;;;8.30;65.40;;;;;;5004429;28;20061;-86
2023/01/22 08:18:35;;;;;;;17.92;9.13;;;8.30;65.40;;;;;;4994965;28;20104;-86
2023/01/22 08:21:01;;;;;;;17.08;9.10;;;8.30;65.30;;;;;;5008797;28;20054;-89
2023/01/22 08:23:27;;;;;;;18.83;8.93;;;8.30;65.10;;;;;;5017982;28;20038;-83
2023/01/22 08:25:58;;;;;;;18.48;8.73;;;8.30;65.20;;;;;;4992897;28;20038;-85
2023/01/22 08:28:24;;;;;;;19.70;9.20;;;8.30;65.10;;;;;;5020942;28;20068;-87
2023/01/22 08:30:50;;;;;;;18.55;9.60;;;8.30;65.10;;;;;;5031424;28;20037;-79
2023/01/22 08:33:16;;;;;;;16.70;9.20;;;8.30;65.10;;;;;;5026788;28;20049;-79
2023/01/22 08:35:42;;;;;;;17.40;9.02;;;8.40;65.30;;;;;;5016435;28;20041;-82
2023/01/22 08:38:08;;;;;;;17.42;9.45;;;8.40;65.20;;;;;;5007544;28;20053;-85
2023/01/22 08:40:34;;;;;;;21.10;9.48;;;8.40;65.20;;;;;;5005488;28;20048;-81
2023/01/22 08:43:00;;;;;;;17.88;9.07;;;8.40;65.80;;;;;;5019096;28;20108;-81
2023/01/22 08:45:25;;;;;;;14.68;8.88;;;8.40;65.10;;;;;;5016398;28;20287;-82
2023/01/22 08:47:56;;;;;;;16.67;8.63;;;8.40;65.70;;;;;;5028815;28;20073;-88
2023/01/22 08:50:22;;;;;;;16.23;8.57;;;8.50;65.20;;;;;;5017138;28;20056;-87
2023/01/22 08:52:48;;;;;;;18.00;9.15;;;8.50;65.20;;;;;;5003363;28;20037;-78
2023/01/22 08:55:14;;;;;;;17.48;9.15;;;8.50;65.20;;;;;;5020536;28;20064;-78
2023/01/22 08:57:40;;;;;;;18.55;9.10;;;8.50;65.20;;;;;;5020709;28;20104;-77
2023/01/22 09:00:07;;;;;;;17.20;8.65;;;8.50;65.30;;;;;;5019192;28;20052;-78
2023/01/22 09:02:33;;;;;;;18.02;9.52;;;8.50;65.30;;;;;;5015047;28;20111;-81
2023/01/22 09:04:59;;;;;;;15.57;8.95;;;8.50;66.00;;;;;;5028523;28;20057;-90
2023/01/22 09:07:25;;;;;;;21.50;9.18;;;8.50;65.40;;;;;;5016351;28;20076;-86
2023/01/22 09:09:51;;;;;;;17.63;9.40;;;8.60;65.60;;;;;;5016542;28;20038;-88
2023/01/22 09:12:17;;;;;;;20.73;10.43;;;8.60;65.50;;;;;;5017064;28;20045;-82
2023/01/22 09:14:43;;;;;;;18.55;10.48;;;8.60;65.40;;;;;;5023982;28;20030;-89
2023/01/22 09:17:09;;;;;;;18.05;9.95;;;8.60;65.40;;;;;;5004165;28;21246;-88
2023/01/22 09:19:35;;;;;;;22.67;11.63;;;8.70;65.50;;;;;;5024525;28;20492;-89
2023/01/22 09:22:05;;;;;;;23.45;10.50;;;8.60;65.40;;;;;;5006045;28;20076;-88
2023/01/22 09:24:31;;;;;;;22.95;10.45;;;8.60;65.30;;;;;;5018825;28;20042;-84
2023/01/22 09:26:58;;;;;;;22.40;10.38;;;8.60;65.30;;;;;;5015743;28;20798;-85
2023/01/22 09:29:23;;;;;;;19.98;10.40;;;8.70;65.40;;;;;;4990276;28;20072;-88
2023/01/22 09:31:50;;;;;;;20.38;11.13;;;8.70;65.40;;;;;;5003791;28;20522;-90
2023/01/22 09:34:16;;;;;;;18.77;10.10;;;8.70;65.40;;;;;;4989863;28;20448;-86
2023/01/22 09:36:42;;;;;;;21.02;11.25;;;8.70;65.30;;;;;;4986599;28;20408;-86
2023/01/22 09:39:08;;;;;;;21.15;11.60;;;8.70;65.20;;;;;;4989468;28;20562;-85
2023/01/22 09:41:41;;;;;;;19.88;10.60;;;8.70;65.20;;;;;;5001375;28;20042;-85
2023/01/22 09:44:19;;;;;;;17.70;10.75;;;8.70;65.70;;;;;;5002971;28;20432;-82
2023/01/22 09:46:53;;;;;;;22.00;10.80;;;8.70;65.10;;;;;;5007693;28;20516;-77
2023/01/22 09:49:34;;;;;;;20.40;10.88;;;8.70;65.00;;;;;;5001444;28;20084;-79
2023/01/22 09:52:01;;;;;;;19.80;10.68;;;8.70;65.00;;;;;;5003632;28;21377;-78
2023/01/22 09:54:29;;;;;;;20.52;10.82;;;8.80;65.00;;;;;;5002370;28;20033;-78
2023/01/22 09:56:58;;;;;;;20.92;11.23;;;8.70;64.80;;;;;;5006340;28;20082;-84
2023/01/22 09:59:35;;;;;;;19.42;10.57;;;8.70;64.80;;;;;;5002200;28;20046;-83
2023/01/22 10:02:30;;;;;;;19.80;11.20;;;8.70;64.60;;;;;;5002156;28;20441;-78
2023/01/22 10:05:04;;;;;;;20.98;11.07;;;8.80;64.70;;;;;;4999604;28;20154;-76
2023/01/22 10:07:42;;;;;;;18.65;11.07;;;8.80;64.60;;;;;;5000362;28;20037;-83
2023/01/22 10:10:24;;;;;;;22.20;11.23;;;8.80;64.60;;;;;;5007356;28;20036;-78
2023/01/22 10:13:05;;;;;;;20.63;10.63;;;8.80;64.60;;;;;;4999872;28;20412;-77
2023/01/22 10:15:32;;;;;;;21.73;11.20;;;8.80;64.60;;;;;;5005048;28;20041;-78
2023/01/22 10:17:58;;;;;;;20.75;10.95;;;8.80;64.70;;;;;;4989095;28;20030;-77
2023/01/22 10:20:25;;;;;;;22.52;11.18;;;8.80;64.80;;;;;;4998958;28;20030;-79
2023/01/22 10:23:05;;;;;;;20.60;11.32;;;8.80;64.60;;;;;;4986379;28;20033;-77
2023/01/22 10:25:32;;;;;;;23.00;11.55;;;8.80;64.40;;;;;;5000360;28;20034;-77
2023/01/22 10:28:00;;;;;;;24.83;11.30;;;8.90;64.30;;;;;;4990079;28;20144;-77
2023/01/22 10:30:27;;;;;;;20.60;11.63;;;8.80;63.90;;;;;;5000314;28;20034;-77
2023/01/22 10:33:05;;;;;;;21.80;11.85;;;8.80;63.80;;;;;;5000384;28;20466;-78
2023/01/22 10:35:40;;;;;;;20.98;12.00;;;8.80;63.70;;;;;;4999783;28;20072;-78
2023/01/22 10:38:23;;;;;;;22.27;11.68;;;8.80;63.60;;;;;;4999308;28;20580;-78
2023/01/22 10:40:55;;;;;;;22.17;12.15;;;8.90;63.60;;;;;;5002227;28;20034;-80
2023/01/22 10:43:28;;;;;;;21.52;11.90;;;8.80;63.50;;;;;;5000086;28;20026;-77
2023/01/22 10:46:03;;;;;;;22.42;12.23;;;8.90;63.40;;;;;;5002299;28;20103;-77
2023/01/22 10:48:29;;;;;;;20.92;11.50;;;8.80;63.30;;;;;;5000503;28;20541;-77
2023/01/22 10:51:15;;;;;;;22.67;12.07;;;8.80;63.30;;;;;;5005648;28;20144;-78
2023/01/22 10:53:52;;;;;;;32.63;13.02;;;8.90;63.20;;;;;;4998772;28;20133;-77
2023/01/22 10:56:30;;;;;;;23.40;11.75;;;8.80;63.10;;;;;;4999205;28;20239;-76
2023/01/22 10:58:58;;;;;;;19.65;11.38;;;8.90;63.20;;;;;;4999411;28;20042;-76
2023/01/22 11:01:30;;;;;;;24.42;12.68;;;8.90;63.20;;;;;;4999466;28;20034;-77
2023/01/22 11:03:56;;;;;;;19.98;10.82;;;8.90;63.00;;;;;;4999025;28;20566;-77
2023/01/22 11:06:35;;;;;;;21.20;11.75;;;8.90;63.00;;;;;;4998755;28;20034;-77
2023/01/22 11:09:13;;;;;;;23.05;12.38;;;8.90;62.90;;;;;;5000398;28;20030;-76
2023/01/22 11:11:46;;;;;;;20.15;11.25;;;8.90;62.90;;;;;;4999237;28;20036;-78
2023/01/22 11:14:24;;;;;;;16.50;10.05;;;8.90;62.80;;;;;;4998570;28;20034;-73
2023/01/22 11:16:53;;;;;;;17.88;9.10;;;9.00;72.40;;;;;;4998690;28;20046;-70
2023/01/22 11:19:24;;;;;;;15.30;8.82;;;9.20;73.50;;;;;;4999535;28;20026;-70
2023/01/22 11:21:54;;;;;;;11.85;7.38;;;9.50;73.50;;;;;;4997727;28;20050;-76
2023/01/22 11:24:39;;;;;;;13.18;8.07;;;9.70;71.00;;;;;;5009057;28;20088;-78
2023/01/22 11:27:33;;;;;;;17.88;9.38;;;9.90;68.90;;;;;;5022686;28;20052;-77
2023/01/22 11:30:08;;;;;;;19.20;10.15;;;9.90;67.10;;;;;;5039557;28;20040;-76
2023/01/22 11:32:37;;;;;;;21.80;11.32;;;9.90;65.30;;;;;;5009593;28;20040;-77
2023/01/22 11:35:24;;;;;;;21.08;11.50;;;9.90;64.10;;;;;;5028693;28;20033;-77
2023/01/22 11:38:30;;;;;;;26.27;12.68;;;9.80;63.40;;;;;;5034310;28;20210;-76
2023/01/22 11:41:01;;;;;;;21.50;11.90;;;9.80;62.80;;;;;;5037834;28;20049;-77
2023/01/22 11:43:54;;;;;;;23.55;11.98;;;9.70;62.40;;;;;;5037746;28;20037;-77
2023/01/22 11:46:55;;;;;;;19.38;11.75;;;9.70;62.30;;;;;;5038394;28;20040;-77
2023/01/22 11:49:21;;;;;;;22.40;12.13;;;9.70;62.20;;;;;;5026737;28;20068;-78
2023/01/22 11:52:13;;;;;;;21.45;12.02;;;9.60;61.90;;;;;;5037445;28;20065;-81
2023/01/22 11:54:57;;;;;;;20.98;12.63;;;9.60;61.80;;;;;;4993684;28;20037;-82
2023/01/22 11:57:31;;;;;;;21.00;12.63;;;9.60;61.70;;;;;;5022740;28;20404;-81
2023/01/22 12:00:26;;;;;;;21.02;12.52;;;9.50;61.60;;;;;;5038283;28;21487;-76
2023/01/22 12:02:52;;;;;;;25.58;12.63;;;9.40;61.50;;;;;;5026501;28;20045;-79
2023/01/22 12:05:21;;;;;;;24.60;12.63;;;9.40;61.50;;;;;;5037307;28;20090;-79
2023/01/22 12:08:37;;;;;;;24.20;13.55;;;9.30;61.40;;;;;;5026802;28;20514;-80
2023/01/22 12:11:24;;;;;;;21.15;12.38;;;9.40;61.50;;;;;;4951388;28;20034;-78
2023/01/22 12:14:10;;;;;;;23.30;11.73;;;9.30;61.30;;;;;;4951753;28;20170;-75
2023/01/22 12:16:56;;;;;;;23.58;11.82;;;9.30;61.50;;;;;;4969017;28;20373;-78
2023/01/22 12:19:28;;;;;;;23.35;12.70;;;9.20;62.10;;;;;;4954041;28;20049;-84
2023/01/22 12:22:18;;;;;;;23.95;12.82;;;9.20;62.60;;;;;;4984159;28;20158;-85
2023/01/22 12:24:54;;;;;;;26.65;12.82;;;9.20;63.10;;;;;;4980914;28;20038;-89
2023/01/22 12:27:41;;;;;;;21.27;11.98;;;9.10;63.50;;;;;;4982885;28;20042;-89
2023/01/22 12:30:20;;;;;;;27.05;12.85;;;9.10;63.70;;;;;;4983467;28;20088;-86
2023/01/22 12:32:53;;;;;;;21.40;12.20;;;9.10;63.70;;;;;;4966590;28;20087;-83
2023/01/22 12:35:21;;;;;;;25.10;12.98;;;9.10;63.80;;;;;;4984057;28;20030;-78
2023/01/22 12:37:54;;;;;;;24.60;12.15;;;9.10;63.80;;;;;;4979282;28;20502;-78
2023/01/22 12:40:42;;;;;;;25.27;12.77;;;9.00;63.80;;;;;;4981483;28;20046;-77
2023/01/22 12:43:08;;;;;;;22.17;13.02;;;9.00;64.10;;;;;;4980897;28;20034;-77
2023/01/22 12:45:42;;;;;;;22.38;12.15;;;9.00;64.70;;;;;;4981927;28;20345;-77
2023/01/22 12:48:12;;;;;;;24.30;11.90;;;9.00;65.00;;;;;;5031998;28;20104;-77
2023/01/22 12:50:48;;;;;;;19.85;12.02;;;9.00;65.40;;;;;;5025033;28;20608;-76
2023/01/22 12:53:21;;;;;;;23.27;12.07;;;9.00;65.70;;;;;;5035556;28;20550;-77
2023/01/22 12:56:01;;;;;;;21.75;11.90;;;9.00;65.90;;;;;;5026762;28;20040;-78
2023/01/22 12:58:30;;;;;;;19.98;11.68;;;9.00;65.90;;;;;;5036644;28;20127;-77
2023/01/22 13:01:23;;;;;;;24.35;11.73;;;9.00;66.00;;;;;;5008031;28;20118;-77
2023/01/22 13:04:04;;;;;;;21.23;12.05;;;9.00;66.00;;;;;;5036966;28;20495;-78
2023/01/22 13:06:37;;;;;;;21.23;13.18;;;9.00;66.00;;;;;;5050901;28;20071;-78
2023/01/22 13:09:24;;;;;;;24.30;13.60;;;9.00;66.20;;;;;;5025538;28;20040;-77
2023/01/22 13:11:50;;;;;;;24.17;13.07;;;9.00;66.20;;;;;;5048940;28;20037;-77